Overview Statistics Trail Chart Weather Telemetry Raw packets
 

This is the latest recevied weather packets stored in our database for station/object KU4DD. If no packets are shown the sender has not sent any weather packets the latest 10 day(s).

<< 13 14 15 16 17 18 19 >>
Time Temp. Humidity Pressure Rain* Wind** Luminosity Snow
1787968004 23.33° C 89% 1017.6 hPa 0 mm - 0 W/m² -
1787966770 23.33° C 88% 1016.9 hPa 0 mm - 0 W/m² -
1787966145 23.33° C 88% 1016.9 hPa 0 mm - 0 W/m² -
1787965828 23.33° C 88% 1017.3 hPa 0 mm - 0 W/m² -
1787963639 23.89° C 88% 1017.6 hPa 0 mm - 0 W/m² -
1787960553 25° C 90% 1016.9 hPa 0 mm - 0 W/m² -
1787959922 25.56° C 91% 1016.6 hPa 0 mm - 0 W/m² -
1787957455 26.67° C 90% 1016.6 hPa 0 mm - 18 W/m² -
1787953101 27.78° C 84% 1015.9 hPa 0 mm - 46 W/m² -
1787951861 27.78° C 84% 1015.9 hPa 0 mm - 25 W/m² -
1787950630 28.33° C 82% 1015.9 hPa 0 mm - 33 W/m² -
1787948754 29.44° C 79% 1015.6 hPa 0 mm - 97 W/m² -
1787946895 30° C 74% 1015.9 hPa 0 mm - 176 W/m² -
1787946583 30° C 74% 1015.9 hPa 0 mm - 204 W/m² -
1787944728 30.56° C 71% 1015.9 hPa 0 mm - 246 W/m² -
1787944097 30.56° C 73% 1016.3 hPa 0 mm - 288 W/m² -
1787943777 30.56° C 70% 1016.3 hPa 0 mm - 318 W/m² -
1787943454 30.56° C 70% 1016.3 hPa 0 mm - 355 W/m² -
1787937323 29.44° C 77% 1016.9 hPa 0 mm - 292 W/m² -
1787936389 28.33° C 79% 1016.9 hPa 0 mm - 267 W/m² -
1787935462 28.33° C 80% 1016.9 hPa 0 mm - 374 W/m² -
1787934841 28.89° C 79% 1017.3 hPa 0 mm - 345 W/m² -
1787932970 27.78° C 82% 1017.3 hPa 0 mm - 475 W/m² -
1787929257 26.11° C 87% 1017.6 hPa 0 mm - 334 W/m² -
1787928018 25.56° C 89% 1017.3 hPa 0 mm - 884 W/m² -

* Rain latest hour (hover to see other rain measurements)
** Current wind speed in m/s (hover to see current wind gust speed)